Ana Sayfa
METAR-TAF:

METAR-TAF

Havaalanları :

Lexington, Kuzey Carolina, Amerika Birleşik Devletleri

Enlem: 35-46-52N, Boylam: 080-18-14W, yükseklik: 223 m

Güncel hava durumu gözlemi

Rapor saat 02:15 UTC de 2 saat ve 0 dakika önce yapıldı.
Sakin rüzgar
Sıcaklık 11°C
Nem 94%
Basınç 1021 hPa
Görüş mesafesi: 16.1 km
3600 ft yükseklikte parçalı bulutlu
5500 ft yükseklikte çok bulutlu

METAR: KEXX 260215Z AUTO 00000KT 10SM SCT036 OVC055 11/10 A3014 RMK AO2 T01100097

Saat: 23:15 (04:15 UTC)


TAF: eksik

4.000'den fazla havaalanı için hava durumu gözlemleri ve tahminleri (METAR ve TAF raporları).

Kullanılabilir istasyonlar harita üzerinde sarı ve kırmızı noktalarla gösterilir.

İstasyonun adını görmek için fareyi noktanın üzerinde gezdirin.

Sonrasında hava gözlem ve tahminlerini görmek için tıklayın.

Haritayı değiştirmek için: yaklaştırmak için siyah artı işaretli yeşil düğmeye ve uzaklaştırmak için de eksi işaretli düğmeye hızla tıklayın; bitişik haritalar için yeşil okları kullanın.


METAR-TAF: